sensor_id;sensor_type;location;lat;lon;timestamp;P1;durP1;ratioP1;P2;durP2;ratioP2
77535;SDS011;70085;44.530;0.094;2023-05-29T00:00:09;20.23;;;18.37;;
77535;SDS011;70085;44.530;0.094;2023-05-29T00:05:41;19.80;;;18.37;;
77535;SDS011;70085;44.530;0.094;2023-05-29T00:11:14;19.30;;;18.10;;
77535;SDS011;70085;44.530;0.094;2023-05-29T00:16:47;20.67;;;19.30;;
77535;SDS011;70085;44.530;0.094;2023-05-29T00:22:20;19.20;;;17.67;;
77535;SDS011;70085;44.530;0.094;2023-05-29T00:27:52;20.37;;;18.77;;
77535;SDS011;70085;44.530;0.094;2023-05-29T00:33:25;19.90;;;18.27;;
77535;SDS011;70085;44.530;0.094;2023-05-29T00:38:58;20.40;;;18.60;;
77535;SDS011;70085;44.530;0.094;2023-05-29T00:44:32;20.50;;;18.63;;
77535;SDS011;70085;44.530;0.094;2023-05-29T00:50:05;21.50;;;19.50;;
77535;SDS011;70085;44.530;0.094;2023-05-29T00:55:37;21.47;;;19.70;;
77535;SDS011;70085;44.530;0.094;2023-05-29T01:01:10;21.67;;;19.77;;
77535;SDS011;70085;44.530;0.094;2023-05-29T01:06:43;20.70;;;19.10;;
77535;SDS011;70085;44.530;0.094;2023-05-29T01:12:32;20.90;;;19.23;;
77535;SDS011;70085;44.530;0.094;2023-05-29T01:17:53;22.80;;;20.57;;
77535;SDS011;70085;44.530;0.094;2023-05-29T01:23:27;20.23;;;18.87;;
77535;SDS011;70085;44.530;0.094;2023-05-29T01:28:53;20.27;;;18.80;;
77535;SDS011;70085;44.530;0.094;2023-05-29T01:34:25;21.13;;;19.63;;
77535;SDS011;70085;44.530;0.094;2023-05-29T01:39:59;19.70;;;18.33;;
77535;SDS011;70085;44.530;0.094;2023-05-29T01:45:31;20.33;;;18.67;;
77535;SDS011;70085;44.530;0.094;2023-05-29T01:51:05;19.10;;;17.90;;
77535;SDS011;70085;44.530;0.094;2023-05-29T01:56:37;21.20;;;19.60;;
77535;SDS011;70085;44.530;0.094;2023-05-29T02:02:10;19.27;;;18.07;;
77535;SDS011;70085;44.530;0.094;2023-05-29T02:07:43;20.00;;;18.17;;
77535;SDS011;70085;44.530;0.094;2023-05-29T02:13:16;21.53;;;19.73;;
77535;SDS011;70085;44.530;0.094;2023-05-29T02:18:48;19.33;;;17.93;;
77535;SDS011;70085;44.530;0.094;2023-05-29T02:24:21;19.47;;;18.27;;
77535;SDS011;70085;44.530;0.094;2023-05-29T02:29:54;20.10;;;18.27;;
77535;SDS011;70085;44.530;0.094;2023-05-29T02:35:26;19.00;;;17.60;;
77535;SDS011;70085;44.530;0.094;2023-05-29T02:40:59;18.57;;;17.03;;
77535;SDS011;70085;44.530;0.094;2023-05-29T02:46:33;19.33;;;17.93;;
77535;SDS011;70085;44.530;0.094;2023-05-29T02:52:05;19.33;;;17.83;;
77535;SDS011;70085;44.530;0.094;2023-05-29T02:57:38;20.47;;;18.87;;
77535;SDS011;70085;44.530;0.094;2023-05-29T03:03:12;18.63;;;17.33;;
77535;SDS011;70085;44.530;0.094;2023-05-29T03:08:45;19.37;;;18.07;;
77535;SDS011;70085;44.530;0.094;2023-05-29T03:14:17;19.60;;;18.10;;
77535;SDS011;70085;44.530;0.094;2023-05-29T03:19:51;19.90;;;18.00;;
77535;SDS011;70085;44.530;0.094;2023-05-29T03:25:25;19.57;;;17.83;;
77535;SDS011;70085;44.530;0.094;2023-05-29T03:30:57;19.60;;;17.90;;
77535;SDS011;70085;44.530;0.094;2023-05-29T03:36:29;18.97;;;17.60;;
77535;SDS011;70085;44.530;0.094;2023-05-29T03:42:03;19.17;;;17.60;;
77535;SDS011;70085;44.530;0.094;2023-05-29T03:47:35;17.67;;;16.47;;
77535;SDS011;70085;44.530;0.094;2023-05-29T03:53:09;18.73;;;17.10;;
77535;SDS011;70085;44.530;0.094;2023-05-29T03:58:42;18.10;;;16.90;;
77535;SDS011;70085;44.530;0.094;2023-05-29T04:04:15;18.43;;;16.83;;
77535;SDS011;70085;44.530;0.094;2023-05-29T04:09:48;18.60;;;17.23;;
77535;SDS011;70085;44.530;0.094;2023-05-29T04:15:22;17.27;;;15.87;;
77535;SDS011;70085;44.530;0.094;2023-05-29T04:20:53;16.77;;;15.30;;
77535;SDS011;70085;44.530;0.094;2023-05-29T04:26:26;18.93;;;17.53;;
77535;SDS011;70085;44.530;0.094;2023-05-29T04:32:03;17.53;;;16.13;;
77535;SDS011;70085;44.530;0.094;2023-05-29T04:37:37;17.40;;;16.00;;
77535;SDS011;70085;44.530;0.094;2023-05-29T04:48:41;19.63;;;17.27;;
77535;SDS011;70085;44.530;0.094;2023-05-29T04:54:13;19.17;;;17.57;;
77535;SDS011;70085;44.530;0.094;2023-05-29T04:59:46;17.57;;;16.03;;
77535;SDS011;70085;44.530;0.094;2023-05-29T05:05:19;17.20;;;16.07;;
77535;SDS011;70085;44.530;0.094;2023-05-29T05:10:52;17.00;;;15.30;;
77535;SDS011;70085;44.530;0.094;2023-05-29T05:16:25;18.00;;;16.57;;
77535;SDS011;70085;44.530;0.094;2023-05-29T05:21:57;16.37;;;14.77;;
77535;SDS011;70085;44.530;0.094;2023-05-29T05:27:29;15.67;;;14.17;;
77535;SDS011;70085;44.530;0.094;2023-05-29T05:33:03;16.33;;;14.90;;
77535;SDS011;70085;44.530;0.094;2023-05-29T05:38:34;16.47;;;14.97;;
77535;SDS011;70085;44.530;0.094;2023-05-29T05:44:07;15.27;;;14.00;;
77535;SDS011;70085;44.530;0.094;2023-05-29T05:49:41;15.73;;;14.30;;
77535;SDS011;70085;44.530;0.094;2023-05-29T05:55:13;16.20;;;14.70;;
77535;SDS011;70085;44.530;0.094;2023-05-29T06:00:46;15.33;;;13.93;;
77535;SDS011;70085;44.530;0.094;2023-05-29T06:06:19;14.30;;;13.27;;
77535;SDS011;70085;44.530;0.094;2023-05-29T06:11:51;15.10;;;14.00;;
77535;SDS011;70085;44.530;0.094;2023-05-29T06:17:24;14.40;;;13.10;;
77535;SDS011;70085;44.530;0.094;2023-05-29T06:22:56;14.37;;;13.13;;
77535;SDS011;70085;44.530;0.094;2023-05-29T06:28:30;12.60;;;11.80;;
77535;SDS011;70085;44.530;0.094;2023-05-29T06:34:04;20.30;;;13.27;;
77535;SDS011;70085;44.530;0.094;2023-05-29T06:39:39;13.07;;;11.73;;
77535;SDS011;70085;44.530;0.094;2023-05-29T06:45:11;13.20;;;11.83;;
77535;SDS011;70085;44.530;0.094;2023-05-29T06:50:44;13.47;;;12.10;;
77535;SDS011;70085;44.530;0.094;2023-05-29T06:56:17;14.67;;;13.03;;
77535;SDS011;70085;44.530;0.094;2023-05-29T07:01:49;12.90;;;11.70;;
77535;SDS011;70085;44.530;0.094;2023-05-29T07:07:21;13.50;;;12.30;;
77535;SDS011;70085;44.530;0.094;2023-05-29T07:12:54;12.10;;;10.90;;
77535;SDS011;70085;44.530;0.094;2023-05-29T07:18:27;12.97;;;10.43;;
77535;SDS011;70085;44.530;0.094;2023-05-29T07:23:59;11.43;;;10.47;;
77535;SDS011;70085;44.530;0.094;2023-05-29T07:29:31;11.37;;;10.27;;
77535;SDS011;70085;44.530;0.094;2023-05-29T07:40:37;10.80;;;9.87;;
77535;SDS011;70085;44.530;0.094;2023-05-29T07:46:10;11.73;;;10.80;;
77535;SDS011;70085;44.530;0.094;2023-05-29T07:51:43;10.70;;;9.73;;
77535;SDS011;70085;44.530;0.094;2023-05-29T07:57:17;13.17;;;12.07;;
77535;SDS011;70085;44.530;0.094;2023-05-29T08:02:49;9.30;;;8.40;;
77535;SDS011;70085;44.530;0.094;2023-05-29T08:08:23;9.20;;;8.30;;
77535;SDS011;70085;44.530;0.094;2023-05-29T08:13:56;12.03;;;8.13;;
77535;SDS011;70085;44.530;0.094;2023-05-29T08:19:29;13.37;;;7.60;;
77535;SDS011;70085;44.530;0.094;2023-05-29T08:25:01;9.33;;;7.80;;
77535;SDS011;70085;44.530;0.094;2023-05-29T08:30:34;8.37;;;7.23;;
77535;SDS011;70085;44.530;0.094;2023-05-29T08:36:09;10.07;;;7.47;;
77535;SDS011;70085;44.530;0.094;2023-05-29T08:41:46;8.27;;;7.13;;
77535;SDS011;70085;44.530;0.094;2023-05-29T08:47:18;12.30;;;6.77;;
77535;SDS011;70085;44.530;0.094;2023-05-29T08:52:46;8.30;;;7.03;;
77535;SDS011;70085;44.530;0.094;2023-05-29T08:58:19;10.20;;;6.90;;
77535;SDS011;70085;44.530;0.094;2023-05-29T09:03:54;8.07;;;6.10;;
77535;SDS011;70085;44.530;0.094;2023-05-29T09:09:27;7.97;;;6.33;;
77535;SDS011;70085;44.530;0.094;2023-05-29T09:14:59;9.10;;;6.67;;
77535;SDS011;70085;44.530;0.094;2023-05-29T09:20:31;8.97;;;5.93;;
77535;SDS011;70085;44.530;0.094;2023-05-29T09:26:04;8.83;;;6.13;;
77535;SDS011;70085;44.530;0.094;2023-05-29T09:31:38;7.53;;;5.23;;
77535;SDS011;70085;44.530;0.094;2023-05-29T09:37:10;10.00;;;5.57;;
77535;SDS011;70085;44.530;0.094;2023-05-29T09:42:42;8.47;;;5.20;;
77535;SDS011;70085;44.530;0.094;2023-05-29T09:48:16;9.13;;;6.60;;
77535;SDS011;70085;44.530;0.094;2023-05-29T09:53:49;7.43;;;5.13;;
77535;SDS011;70085;44.530;0.094;2023-05-29T09:59:21;9.83;;;5.70;;
77535;SDS011;70085;44.530;0.094;2023-05-29T10:04:52;9.53;;;4.90;;
77535;SDS011;70085;44.530;0.094;2023-05-29T10:10:27;6.30;;;4.60;;
77535;SDS011;70085;44.530;0.094;2023-05-29T10:15:59;6.03;;;5.27;;
77535;SDS011;70085;44.530;0.094;2023-05-29T10:21:31;7.10;;;4.63;;
77535;SDS011;70085;44.530;0.094;2023-05-29T10:27:03;7.93;;;5.17;;
77535;SDS011;70085;44.530;0.094;2023-05-29T10:32:38;11.23;;;5.03;;
77535;SDS011;70085;44.530;0.094;2023-05-29T10:38:11;8.10;;;4.60;;
77535;SDS011;70085;44.530;0.094;2023-05-29T10:49:15;8.80;;;4.17;;
77535;SDS011;70085;44.530;0.094;2023-05-29T10:54:51;6.80;;;3.60;;
77535;SDS011;70085;44.530;0.094;2023-05-29T11:00:23;11.13;;;3.93;;
77535;SDS011;70085;44.530;0.094;2023-05-29T11:05:56;8.50;;;3.40;;
77535;SDS011;70085;44.530;0.094;2023-05-29T11:11:29;8.03;;;3.20;;
77535;SDS011;70085;44.530;0.094;2023-05-29T11:17:00;10.60;;;3.73;;
77535;SDS011;70085;44.530;0.094;2023-05-29T11:22:41;8.07;;;2.83;;
77535;SDS011;70085;44.530;0.094;2023-05-29T11:28:10;7.20;;;2.63;;
77535;SDS011;70085;44.530;0.094;2023-05-29T11:33:39;5.30;;;2.50;;
77535;SDS011;70085;44.530;0.094;2023-05-29T11:39:11;6.37;;;2.47;;
77535;SDS011;70085;44.530;0.094;2023-05-29T11:44:44;9.17;;;3.30;;
77535;SDS011;70085;44.530;0.094;2023-05-29T11:50:18;7.63;;;2.83;;
77535;SDS011;70085;44.530;0.094;2023-05-29T11:55:51;7.37;;;3.17;;
77535;SDS011;70085;44.530;0.094;2023-05-29T12:01:25;8.73;;;2.47;;
77535;SDS011;70085;44.530;0.094;2023-05-29T12:06:56;6.17;;;2.43;;
77535;SDS011;70085;44.530;0.094;2023-05-29T12:12:30;6.00;;;2.80;;
77535;SDS011;70085;44.530;0.094;2023-05-29T12:18:03;6.63;;;2.60;;
77535;SDS011;70085;44.530;0.094;2023-05-29T12:23:34;4.10;;;2.27;;
77535;SDS011;70085;44.530;0.094;2023-05-29T12:34:42;7.50;;;2.60;;
77535;SDS011;70085;44.530;0.094;2023-05-29T12:40:15;6.60;;;2.20;;
77535;SDS011;70085;44.530;0.094;2023-05-29T12:45:44;6.60;;;2.40;;
77535;SDS011;70085;44.530;0.094;2023-05-29T12:51:22;5.83;;;3.27;;
77535;SDS011;70085;44.530;0.094;2023-05-29T12:56:52;7.00;;;3.07;;
77535;SDS011;70085;44.530;0.094;2023-05-29T13:02:24;8.43;;;3.17;;
77535;SDS011;70085;44.530;0.094;2023-05-29T13:07:57;5.63;;;2.90;;
77535;SDS011;70085;44.530;0.094;2023-05-29T13:13:29;6.37;;;2.83;;
77535;SDS011;70085;44.530;0.094;2023-05-29T13:19:03;5.40;;;2.37;;
77535;SDS011;70085;44.530;0.094;2023-05-29T13:24:36;5.87;;;2.57;;
77535;SDS011;70085;44.530;0.094;2023-05-29T13:30:10;7.90;;;2.67;;
77535;SDS011;70085;44.530;0.094;2023-05-29T13:35:41;8.47;;;2.33;;
77535;SDS011;70085;44.530;0.094;2023-05-29T13:41:13;7.80;;;3.20;;
77535;SDS011;70085;44.530;0.094;2023-05-29T13:46:47;4.27;;;3.07;;
77535;SDS011;70085;44.530;0.094;2023-05-29T13:52:20;6.93;;;2.63;;
77535;SDS011;70085;44.530;0.094;2023-05-29T13:57:53;6.60;;;2.30;;
77535;SDS011;70085;44.530;0.094;2023-05-29T14:03:29;6.10;;;2.53;;
77535;SDS011;70085;44.530;0.094;2023-05-29T14:09:01;6.27;;;2.50;;
77535;SDS011;70085;44.530;0.094;2023-05-29T14:14:33;5.67;;;2.10;;
77535;SDS011;70085;44.530;0.094;2023-05-29T14:20:09;5.60;;;1.93;;
77535;SDS011;70085;44.530;0.094;2023-05-29T14:25:39;3.17;;;1.50;;
77535;SDS011;70085;44.530;0.094;2023-05-29T14:31:13;8.47;;;2.23;;
77535;SDS011;70085;44.530;0.094;2023-05-29T14:36:45;6.07;;;1.80;;
77535;SDS011;70085;44.530;0.094;2023-05-29T14:42:19;7.63;;;2.00;;
77535;SDS011;70085;44.530;0.094;2023-05-29T14:53:26;5.77;;;1.40;;
77535;SDS011;70085;44.530;0.094;2023-05-29T14:58:58;4.20;;;1.53;;
77535;SDS011;70085;44.530;0.094;2023-05-29T15:04:31;9.37;;;1.90;;
77535;SDS011;70085;44.530;0.094;2023-05-29T15:10:03;6.30;;;1.60;;
77535;SDS011;70085;44.530;0.094;2023-05-29T15:15:36;8.07;;;1.60;;
77535;SDS011;70085;44.530;0.094;2023-05-29T15:21:10;7.60;;;1.27;;
77535;SDS011;70085;44.530;0.094;2023-05-29T15:26:42;4.77;;;1.90;;
77535;SDS011;70085;44.530;0.094;2023-05-29T15:32:15;7.17;;;1.63;;
77535;SDS011;70085;44.530;0.094;2023-05-29T15:37:47;5.83;;;1.90;;
77535;SDS011;70085;44.530;0.094;2023-05-29T15:43:20;4.10;;;1.43;;
77535;SDS011;70085;44.530;0.094;2023-05-29T15:48:53;5.10;;;1.90;;
77535;SDS011;70085;44.530;0.094;2023-05-29T15:54:26;4.87;;;1.13;;
77535;SDS011;70085;44.530;0.094;2023-05-29T16:00:00;5.50;;;1.53;;
77535;SDS011;70085;44.530;0.094;2023-05-29T16:05:34;5.23;;;1.90;;
77535;SDS011;70085;44.530;0.094;2023-05-29T16:11:06;4.00;;;1.37;;
77535;SDS011;70085;44.530;0.094;2023-05-29T16:16:38;3.83;;;1.37;;
77535;SDS011;70085;44.530;0.094;2023-05-29T16:22:10;4.33;;;1.80;;
77535;SDS011;70085;44.530;0.094;2023-05-29T16:27:43;3.83;;;1.67;;
77535;SDS011;70085;44.530;0.094;2023-05-29T16:33:15;6.27;;;2.20;;
77535;SDS011;70085;44.530;0.094;2023-05-29T16:38:47;5.67;;;1.53;;
77535;SDS011;70085;44.530;0.094;2023-05-29T16:44:21;4.17;;;1.50;;
77535;SDS011;70085;44.530;0.094;2023-05-29T16:49:55;4.60;;;1.80;;
77535;SDS011;70085;44.530;0.094;2023-05-29T16:55:28;4.27;;;1.90;;
77535;SDS011;70085;44.530;0.094;2023-05-29T17:01:02;3.97;;;1.23;;
77535;SDS011;70085;44.530;0.094;2023-05-29T17:06:36;4.97;;;2.03;;
77535;SDS011;70085;44.530;0.094;2023-05-29T17:12:07;6.73;;;2.97;;
77535;SDS011;70085;44.530;0.094;2023-05-29T17:23:13;8.57;;;2.53;;
77535;SDS011;70085;44.530;0.094;2023-05-29T17:28:43;5.00;;;1.53;;
77535;SDS011;70085;44.530;0.094;2023-05-29T17:34:18;4.60;;;1.97;;
77535;SDS011;70085;44.530;0.094;2023-05-29T17:39:50;4.83;;;2.43;;
77535;SDS011;70085;44.530;0.094;2023-05-29T17:45:23;4.90;;;1.70;;
77535;SDS011;70085;44.530;0.094;2023-05-29T17:50:55;3.77;;;1.93;;
77535;SDS011;70085;44.530;0.094;2023-05-29T17:56:28;5.03;;;1.87;;
77535;SDS011;70085;44.530;0.094;2023-05-29T18:02:00;4.87;;;1.80;;
77535;SDS011;70085;44.530;0.094;2023-05-29T18:07:34;5.50;;;1.93;;
77535;SDS011;70085;44.530;0.094;2023-05-29T18:13:07;3.63;;;1.60;;
77535;SDS011;70085;44.530;0.094;2023-05-29T18:18:39;4.57;;;1.93;;
77535;SDS011;70085;44.530;0.094;2023-05-29T18:24:11;5.33;;;1.73;;
77535;SDS011;70085;44.530;0.094;2023-05-29T18:29:43;7.30;;;2.10;;
77535;SDS011;70085;44.530;0.094;2023-05-29T18:35:15;6.40;;;2.23;;
77535;SDS011;70085;44.530;0.094;2023-05-29T18:40:46;5.47;;;2.23;;
77535;SDS011;70085;44.530;0.094;2023-05-29T18:46:18;6.13;;;3.23;;
77535;SDS011;70085;44.530;0.094;2023-05-29T18:51:49;9.70;;;2.83;;
77535;SDS011;70085;44.530;0.094;2023-05-29T18:57:22;7.17;;;2.80;;
77535;SDS011;70085;44.530;0.094;2023-05-29T19:02:54;6.70;;;3.10;;
77535;SDS011;70085;44.530;0.094;2023-05-29T19:08:27;4.93;;;2.73;;
77535;SDS011;70085;44.530;0.094;2023-05-29T19:14:01;3.57;;;2.30;;
77535;SDS011;70085;44.530;0.094;2023-05-29T19:19:32;6.20;;;3.53;;
77535;SDS011;70085;44.530;0.094;2023-05-29T19:25:04;7.27;;;3.60;;
77535;SDS011;70085;44.530;0.094;2023-05-29T19:30:37;8.37;;;4.37;;
77535;SDS011;70085;44.530;0.094;2023-05-29T19:36:09;10.20;;;4.27;;
77535;SDS011;70085;44.530;0.094;2023-05-29T19:41:42;7.67;;;4.27;;
77535;SDS011;70085;44.530;0.094;2023-05-29T19:47:13;6.77;;;4.70;;
77535;SDS011;70085;44.530;0.094;2023-05-29T19:52:47;9.37;;;4.63;;
77535;SDS011;70085;44.530;0.094;2023-05-29T19:58:20;9.93;;;4.57;;
77535;SDS011;70085;44.530;0.094;2023-05-29T20:03:55;8.90;;;4.50;;
77535;SDS011;70085;44.530;0.094;2023-05-29T20:09:26;5.27;;;4.70;;
77535;SDS011;70085;44.530;0.094;2023-05-29T20:14:58;6.13;;;4.27;;
77535;SDS011;70085;44.530;0.094;2023-05-29T20:20:30;9.20;;;5.10;;
77535;SDS011;70085;44.530;0.094;2023-05-29T20:26:03;7.73;;;6.63;;
77535;SDS011;70085;44.530;0.094;2023-05-29T20:31:34;11.33;;;8.07;;
77535;SDS011;70085;44.530;0.094;2023-05-29T20:37:06;10.47;;;9.17;;
77535;SDS011;70085;44.530;0.094;2023-05-29T20:42:42;11.50;;;10.33;;
77535;SDS011;70085;44.530;0.094;2023-05-29T20:48:12;11.17;;;10.20;;
77535;SDS011;70085;44.530;0.094;2023-05-29T20:53:44;12.00;;;10.83;;
77535;SDS011;70085;44.530;0.094;2023-05-29T20:59:21;12.43;;;11.03;;
77535;SDS011;70085;44.530;0.094;2023-05-29T21:04:52;12.50;;;10.90;;
77535;SDS011;70085;44.530;0.094;2023-05-29T21:10:25;11.17;;;10.17;;
77535;SDS011;70085;44.530;0.094;2023-05-29T21:15:56;11.97;;;11.03;;
77535;SDS011;70085;44.530;0.094;2023-05-29T21:21:28;11.67;;;10.50;;
77535;SDS011;70085;44.530;0.094;2023-05-29T21:27:03;12.37;;;11.03;;
77535;SDS011;70085;44.530;0.094;2023-05-29T21:32:35;14.83;;;10.93;;
77535;SDS011;70085;44.530;0.094;2023-05-29T21:38:08;12.07;;;11.07;;
77535;SDS011;70085;44.530;0.094;2023-05-29T21:43:42;12.83;;;10.70;;
77535;SDS011;70085;44.530;0.094;2023-05-29T21:49:13;11.77;;;10.63;;
77535;SDS011;70085;44.530;0.094;2023-05-29T21:54:46;22.10;;;12.53;;
77535;SDS011;70085;44.530;0.094;2023-05-29T22:00:24;12.23;;;11.03;;
77535;SDS011;70085;44.530;0.094;2023-05-29T22:05:52;13.00;;;11.00;;
77535;SDS011;70085;44.530;0.094;2023-05-29T22:11:26;12.37;;;11.37;;
77535;SDS011;70085;44.530;0.094;2023-05-29T22:16:57;12.50;;;11.50;;
77535;SDS011;70085;44.530;0.094;2023-05-29T22:22:29;13.43;;;12.27;;
77535;SDS011;70085;44.530;0.094;2023-05-29T22:28:02;14.03;;;12.73;;
77535;SDS011;70085;44.530;0.094;2023-05-29T22:33:35;13.07;;;10.73;;
77535;SDS011;70085;44.530;0.094;2023-05-29T22:39:07;13.60;;;12.43;;
77535;SDS011;70085;44.530;0.094;2023-05-29T22:44:41;13.17;;;11.20;;
77535;SDS011;70085;44.530;0.094;2023-05-29T22:50:12;13.33;;;12.00;;
77535;SDS011;70085;44.530;0.094;2023-05-29T22:55:48;16.77;;;12.20;;
77535;SDS011;70085;44.530;0.094;2023-05-29T23:01:19;15.97;;;12.80;;
77535;SDS011;70085;44.530;0.094;2023-05-29T23:06:51;13.73;;;12.50;;
77535;SDS011;70085;44.530;0.094;2023-05-29T23:12:24;13.60;;;12.40;;
77535;SDS011;70085;44.530;0.094;2023-05-29T23:17:57;13.10;;;11.80;;
77535;SDS011;70085;44.530;0.094;2023-05-29T23:23:29;18.13;;;12.17;;
77535;SDS011;70085;44.530;0.094;2023-05-29T23:29:03;14.53;;;12.57;;
77535;SDS011;70085;44.530;0.094;2023-05-29T23:34:37;15.20;;;12.03;;
77535;SDS011;70085;44.530;0.094;2023-05-29T23:40:10;17.57;;;13.33;;
77535;SDS011;70085;44.530;0.094;2023-05-29T23:45:41;13.87;;;12.47;;
77535;SDS011;70085;44.530;0.094;2023-05-29T23:51:13;13.87;;;12.50;;
77535;SDS011;70085;44.530;0.094;2023-05-29T23:56:48;16.37;;;12.20;;
